INFORMAÇÕES DO AERODROMO
Icao Aerodromo ENTC Nome do Aerodromo Tromsø Airport Cidade Tromsø
Código GPS ENTC Elevação Média 31 ft Tipo de Aerodromo Aeroporto Grande Porte

INFORMAÇÃO DE PISTA
Pista 01 Comprimento da Pista 7848 ft Largura da Pista 148 ft
Elevação da Pista 25 ft Distância de Area de Escape da Pista 0 ft Orientação da Pista 13
Pista 19 Comprimento da Pista 7848 ft Largura da Pista 148 ft
Elevação da Pista 13 ft Distância de Area de Escape da Pista 1286 ft Orientação da Pista 193

FREQUÊNCIAS DO AERODROMO
Tipo APP Nome APP Frequência 123.75 MHZ
Tipo ATIS Nome ATIS Frequência 126.125 MHZ
Tipo TWR Nome TWR Frequência 118.3 MHZ

INFORMAÇÕES DE NAVEGAÇÃO PRÓXIMO AO AERODROMO
Tipo NDB Nome Kobbe Frequência 283 KHZ
Tipo NDB Nome Kvalsund Frequência 362 KHZ
Tipo NDB Nome Lanes Frequência 268 KHZ
Tipo VOR-DME Nome Tromso Frequência 113800 KHZ

Informações de Meteorologia(METAR atual)
METAR DE ENTC
ADDS - METARS form results

(0505 UTC 24 May 2019)
Data provider http://aviationweather.gov/metar/data/
 
METAR text: ENTC 240450Z 04006KT CAVOK 06/M01 Q1014 RMK WIND 2600FT 12007KT
Conditions at: ENTC (TROMSO/LANGNES , NO) observed 0450 UTC 24 May 2019
Temperature: 6.0°C (43°F)
Dewpoint: -1.0°C (30°F) [RH = 61%]
Pressure (altimeter): 29.94 inches Hg (1014.0 mb)
Winds: from the NE (40 degrees) at 7 MPH (6 knots; 3.1 m/s)
Visibility: 6 or more miles (10+ km)
Ceiling: ceiling and visibility are OK
Clouds: unknown
Weather: no significant weather observed at this time

METAR text: ENTC 240420Z 02009KT CAVOK 05/M01 Q1014 RMK WIND 2600FT 12007KT
Conditions at: ENTC (TROMSO/LANGNES , NO) observed 0420 UTC 24 May 2019
Temperature: 5.0°C (41°F)
Dewpoint: -1.0°C (30°F) [RH = 65%]
Pressure (altimeter): 29.94 inches Hg (1014.0 mb)
Winds: from the NNE (20 degrees) at 10 MPH (9 knots; 4.6 m/s)
Visibility: 6 or more miles (10+ km)
Ceiling: ceiling and visibility are OK
Clouds: unknown
Weather: no significant weather observed at this time

Forecast for: ENTC (TROMSO/LANGNES , NO)
Text: TAF ENTC 2400/2424 03015KT CAVOK
Forecast period: 0000 UTC 24 May 2019 to 0000 UTC 25 May 2019
Forecast type: FROM: standard forecast or significant change
Winds: from the NNE (30 degrees) at 17 MPH (15 knots; 7.7 m/s)
Visibility: 6 or more miles 10+ km)
Ceiling: unknown
Clouds: missing
Weather: NSW  (no significant weather)
Text: TEMPO 2400/2409 VRB05KT
Forecast period: 0000 to 0900 UTC 24 May 2019
Forecast type: TEMPORARY: The following changes expected for less than half the time period
Winds: variable direction winds at 6 MPH (5 knots; 2.6 m/s)
Visibility: missing
Ceiling: unknown
Clouds: missing
Weather: no significant weather forecast for this period

MAPA DO AERODROMO


Desenvolvido por Virtual Airlines Manager




Modificado por Servidor Brasil Amigos